Time;durP1;ratioP1;P1;durP2;ratioP2;P2;SDS_P1;SDS_P2;PMS_P1;PMS_P2;Temp;Humidity;BMP_temperature;BMP_pressure;BME280_temperature;BME280_humidity;BME280_pressure;Samples;Min_cycle;Max_cycle;Signal;HPM_P1;HPM_P2
2022/03/20 00:02:20;;;;;;;8.52;3.92;;;;;;;;;;5093823;28;20050;-94
2022/03/20 00:04:46;;;;;;;8.45;3.63;;;;;;;;;;5093616;28;20048;-94
2022/03/20 00:07:11;;;;;;;9.25;4.45;;;;;;;;;;5093658;28;20027;-95
2022/03/20 00:09:37;;;;;;;10.02;3.88;;;;;;;;;;5091258;28;20016;-87
2022/03/20 00:12:02;;;;;;;9.73;4.32;;;;;;;;;;5092547;28;20020;-94
2022/03/20 00:14:28;;;;;;;9.40;4.20;;;;;;;;;;5093586;28;20075;-93
2022/03/20 00:16:53;;;;;;;8.70;4.20;;;;;;;;;;5093497;28;20110;-86
2022/03/20 00:19:19;;;;;;;12.18;4.78;;;;;;;;;;5092274;28;20357;-94
2022/03/20 00:21:44;;;;;;;11.43;4.43;;;;;;;;;;5093792;28;20028;-94
2022/03/20 00:24:09;;;;;;;12.57;4.45;;;;;;;;;;5092479;28;20484;-93
2022/03/20 00:26:34;;;;;;;12.88;4.68;;;;;;;;;;5092582;28;20022;-94
2022/03/20 00:29:00;;;;;;;12.48;4.38;;;;;;;;;;5093700;28;20016;-93
2022/03/20 00:31:25;;;;;;;12.35;4.80;;;;;;;;;;5093250;28;20023;-92
2022/03/20 00:33:51;;;;;;;10.82;4.40;;;;;;;;;;5093457;28;20012;-91
2022/03/20 00:36:16;;;;;;;12.45;4.85;;;;;;;;;;5093467;28;20529;-87
2022/03/20 00:38:41;;;;;;;12.05;4.25;;;;;;;;;;5093091;28;20449;-85
2022/03/20 00:41:06;;;;;;;13.68;4.43;;;;;;;;;;5093554;28;20020;-85
2022/03/20 00:43:31;;;;;;;10.07;4.78;;;;;;;;;;5091973;28;20103;-93
2022/03/20 00:45:57;;;;;;;10.52;4.47;;;;;;;;;;5091785;28;20039;-93
2022/03/20 00:48:22;;;;;;;11.55;4.90;;;;;;;;;;5093613;28;20028;-91
2022/03/20 00:50:48;;;;;;;12.10;4.75;;;;;;;;;;5093266;28;20016;-85
2022/03/20 00:53:13;;;;;;;14.60;6.22;;;;;;;;;;5092404;28;20490;-94
2022/03/20 00:55:39;;;;;;;10.77;4.82;;;;;;;;;;5091988;28;20037;-95
2022/03/20 00:58:04;;;;;;;14.27;4.75;;;;;;;;;;5092036;28;20020;-86
2022/03/20 01:00:31;;;;;;;13.02;5.30;;;;;;;;;;5092060;28;20372;-93
2022/03/20 01:02:57;;;;;;;15.27;5.78;;;;;;;;;;5091820;28;20019;-90
2022/03/20 01:05:22;;;;;;;14.88;5.70;;;;;;;;;;5091958;28;20024;-94
2022/03/20 01:07:47;;;;;;;12.02;5.57;;;;;;;;;;5092078;28;20023;-93
2022/03/20 01:10:12;;;;;;;15.52;7.00;;;;;;;;;;5091561;28;20020;-94
2022/03/20 01:12:39;;;;;;;11.38;5.75;;;;;;;;;;5091797;28;20031;-85
2022/03/20 01:15:06;;;;;;;15.13;6.93;;;;;;;;;;5091786;28;20024;-85
2022/03/20 01:17:31;;;;;;;15.07;6.45;;;;;;;;;;5091611;28;20078;-94
2022/03/20 01:19:56;;;;;;;14.98;6.25;;;;;;;;;;5092753;28;20028;-92
2022/03/20 01:22:21;;;;;;;16.00;6.97;;;;;;;;;;5096665;28;20044;-94
2022/03/20 01:24:47;;;;;;;17.17;7.25;;;;;;;;;;5095498;28;20035;-85
2022/03/20 01:27:13;;;;;;;18.35;8.05;;;;;;;;;;5096988;28;20471;-95
2022/03/20 01:29:38;;;;;;;17.15;7.70;;;;;;;;;;5095444;28;20024;-86
2022/03/20 01:32:03;;;;;;;14.77;7.70;;;;;;;;;;5096860;28;20519;-94
2022/03/20 01:34:28;;;;;;;17.50;7.68;;;;;;;;;;5095357;28;20024;-85
2022/03/20 01:36:54;;;;;;;17.33;8.05;;;;;;;;;;5095597;28;20357;-93
2022/03/20 01:39:19;;;;;;;16.30;7.60;;;;;;;;;;5095755;28;20012;-94
2022/03/20 01:41:46;;;;;;;16.45;8.30;;;;;;;;;;5096500;28;20027;-85
2022/03/20 01:44:12;;;;;;;16.20;7.25;;;;;;;;;;5095535;28;20030;-93
2022/03/20 01:46:37;;;;;;;19.80;8.48;;;;;;;;;;5095236;28;20016;-93
2022/03/20 01:49:03;;;;;;;17.77;8.13;;;;;;;;;;5095073;28;20062;-94
2022/03/20 01:54:13;;;;;;;19.80;8.30;;;;;;;;;;5096503;28;20050;-93
2022/03/20 01:56:46;;;;;;;18.02;7.18;;;;;;;;;;5095032;28;20032;-87
2022/03/20 01:59:11;;;;;;;15.43;7.70;;;;;;;;;;5096191;28;20103;-93
2022/03/20 02:01:36;;;;;;;18.30;8.65;;;;;;;;;;5095247;28;20099;-86
2022/03/20 02:04:02;;;;;;;19.25;8.57;;;;;;;;;;5095249;28;20027;-93
2022/03/20 02:06:27;;;;;;;18.50;8.98;;;;;;;;;;5094627;28;20020;-84
2022/03/20 02:08:56;;;;;;;21.70;8.77;;;;;;;;;;5095055;28;20376;-94
2022/03/20 02:11:22;;;;;;;19.55;9.32;;;;;;;;;;5094717;28;20028;-94
2022/03/20 02:13:48;;;;;;;18.60;9.00;;;;;;;;;;5094900;28;20020;-92
2022/03/20 02:16:14;;;;;;;20.48;8.75;;;;;;;;;;5095380;28;20388;-93
2022/03/20 02:18:39;;;;;;;20.52;9.60;;;;;;;;;;5094248;28;20020;-84
2022/03/20 02:21:04;;;;;;;22.10;9.48;;;;;;;;;;5094488;28;20050;-94
2022/03/20 02:23:34;;;;;;;22.38;9.40;;;;;;;;;;5095447;28;20020;-90
2022/03/20 02:26:00;;;;;;;20.27;9.50;;;;;;;;;;5094077;28;20028;-94
2022/03/20 02:28:26;;;;;;;20.10;9.13;;;;;;;;;;5094516;28;20023;-94
2022/03/20 02:30:51;;;;;;;23.05;9.45;;;;;;;;;;5095399;28;20099;-93
2022/03/20 02:33:18;;;;;;;18.27;8.95;;;;;;;;;;5093600;28;20027;-86
2022/03/20 02:35:44;;;;;;;18.48;8.63;;;;;;;;;;5094151;28;20028;-86
2022/03/20 02:38:10;;;;;;;18.25;8.65;;;;;;;;;;5094405;28;20385;-86
2022/03/20 02:40:35;;;;;;;18.05;8.52;;;;;;;;;;5094663;28;20058;-94
2022/03/20 02:43:02;;;;;;;20.13;8.93;;;;;;;;;;5093678;28;20470;-93
2022/03/20 02:45:28;;;;;;;18.77;8.35;;;;;;;;;;5093822;28;20016;-86
2022/03/20 02:47:53;;;;;;;18.85;8.07;;;;;;;;;;5094739;28;20376;-94
2022/03/20 02:50:20;;;;;;;22.88;9.32;;;;;;;;;;5095088;28;20016;-94
2022/03/20 02:52:55;;;;;;;20.65;9.85;;;;;;;;;;5093669;28;20028;-94
2022/03/20 02:55:22;;;;;;;24.60;9.40;;;;;;;;;;5093585;28;20017;-93
2022/03/20 02:57:47;;;;;;;20.67;8.75;;;;;;;;;;5094128;28;20025;-86
2022/03/20 03:00:14;;;;;;;23.08;9.63;;;;;;;;;;5093746;28;20016;-89
2022/03/20 03:02:43;;;;;;;29.53;10.80;;;;;;;;;;5093919;28;20016;-94
2022/03/20 03:05:09;;;;;;;24.00;10.23;;;;;;;;;;5093694;28;20028;-95
2022/03/20 03:13:03;;;;;;;19.00;8.90;;;;;;;;;;5094841;28;20027;-94
2022/03/20 03:15:29;;;;;;;20.27;9.00;;;;;;;;;;5093421;28;20127;-94
2022/03/20 03:17:55;;;;;;;19.75;9.52;;;;;;;;;;5094659;28;20034;-94
2022/03/20 03:20:21;;;;;;;19.25;8.73;;;;;;;;;;5093711;28;20073;-94
2022/03/20 03:22:46;;;;;;;20.93;8.97;;;;;;;;;;5094388;28;20015;-88
2022/03/20 03:25:11;;;;;;;20.87;8.97;;;;;;;;;;5093327;28;20036;-95
2022/03/20 03:27:37;;;;;;;20.00;8.83;;;;;;;;;;5093301;28;20132;-88
2022/03/20 03:30:02;;;;;;;20.42;9.25;;;;;;;;;;5093017;28;20024;-94
2022/03/20 03:32:28;;;;;;;21.37;9.53;;;;;;;;;;5093439;28;20035;-85
2022/03/20 03:37:37;;;;;;;21.87;9.50;;;;;;;;;;5094208;28;20085;-92
2022/03/20 03:40:03;;;;;;;19.50;9.52;;;;;;;;;;5094443;28;20008;-85
2022/03/20 03:42:30;;;;;;;16.88;8.15;;;;;;;;;;5092697;28;20045;-85
2022/03/20 03:44:55;;;;;;;17.97;8.00;;;;;;;;;;5092805;28;20235;-91
2022/03/20 03:47:21;;;;;;;16.60;7.53;;;;;;;;;;5092734;28;20480;-89
2022/03/20 03:49:46;;;;;;;17.77;7.40;;;;;;;;;;5093192;28;20464;-94
2022/03/20 03:52:11;;;;;;;19.07;8.57;;;;;;;;;;5094026;28;20054;-85
2022/03/20 03:54:36;;;;;;;24.47;10.47;;;;;;;;;;5109698;28;20027;-87
2022/03/20 03:57:02;;;;;;;22.50;9.27;;;;;;;;;;5092811;28;20016;-94
2022/03/20 03:59:27;;;;;;;23.10;9.87;;;;;;;;;;5092658;28;20069;-86
2022/03/20 04:01:54;;;;;;;20.17;7.97;;;;;;;;;;5093811;28;20024;-93
2022/03/20 04:04:20;;;;;;;21.60;9.40;;;;;;;;;;5092241;28;20059;-94
2022/03/20 04:06:45;;;;;;;20.13;9.67;;;;;;;;;;5092475;28;20040;-86
2022/03/20 04:09:10;;;;;;;18.93;8.70;;;;;;;;;;5092623;28;20035;-87
2022/03/20 04:11:35;;;;;;;23.73;11.20;;;;;;;;;;5093669;28;20016;-95
2022/03/20 04:14:00;;;;;;;21.40;9.13;;;;;;;;;;5092374;28;20020;-94
2022/03/20 04:16:26;;;;;;;23.43;11.53;;;;;;;;;;5092275;28;20043;-94
2022/03/20 04:18:51;;;;;;;25.20;10.77;;;;;;;;;;5092345;28;20016;-85
2022/03/20 04:21:17;;;;;;;23.57;11.07;;;;;;;;;;5092615;28;20031;-94
2022/03/20 04:23:43;;;;;;;19.87;9.20;;;;;;;;;;5093729;28;20031;-94
2022/03/20 04:26:09;;;;;;;21.17;9.80;;;;;;;;;;5092843;28;20114;-95
2022/03/20 04:28:34;;;;;;;22.53;10.07;;;;;;;;;;5093962;28;20101;-95
2022/03/20 04:30:59;;;;;;;20.20;9.70;;;;;;;;;;5092479;28;20065;-94
2022/03/20 04:33:25;;;;;;;22.23;10.70;;;;;;;;;;5093640;28;20047;-94
2022/03/20 04:35:50;;;;;;;22.93;11.27;;;;;;;;;;5091859;28;20081;-93
2022/03/20 04:38:16;;;;;;;23.00;10.10;;;;;;;;;;5092800;28;20020;-93
2022/03/20 04:40:41;;;;;;;24.60;10.60;;;;;;;;;;5093206;28;20016;-94
2022/03/20 04:43:06;;;;;;;24.00;10.20;;;;;;;;;;5092024;28;20027;-95
2022/03/20 04:45:32;;;;;;;21.30;9.83;;;;;;;;;;5089537;28;20468;-86
2022/03/20 04:58:53;;;;;;;23.20;10.40;;;;;;;;;;5092887;28;20112;-94
2022/03/20 05:01:18;;;;;;;27.03;10.57;;;;;;;;;;5097311;28;20063;-93
2022/03/20 05:03:43;;;;;;;25.87;11.33;;;;;;;;;;5097383;28;20095;-94
2022/03/20 05:06:08;;;;;;;22.20;11.37;;;;;;;;;;5096229;28;20058;-85
2022/03/20 05:08:37;;;;;;;20.77;9.87;;;;;;;;;;5096221;28;20052;-94
2022/03/20 05:13:47;;;;;;;23.37;10.63;;;;;;;;;;5097386;28;20043;-86
2022/03/20 05:16:12;;;;;;;22.42;10.25;;;;;;;;;;5095839;28;20032;-94
2022/03/20 05:18:37;;;;;;;21.43;9.20;;;;;;;;;;5096049;28;20096;-85
2022/03/20 05:21:03;;;;;;;20.03;9.60;;;;;;;;;;5096169;28;20884;-94
2022/03/20 05:23:28;;;;;;;21.60;10.07;;;;;;;;;;5095772;28;20089;-92
2022/03/20 05:25:53;;;;;;;17.83;9.10;;;;;;;;;;5095635;28;20028;-94
2022/03/20 05:28:18;;;;;;;22.97;10.00;;;;;;;;;;5096842;28;20024;-95
2022/03/20 05:30:44;;;;;;;20.93;9.97;;;;;;;;;;5095687;28;20016;-93
2022/03/20 05:33:15;;;;;;;22.27;9.93;;;;;;;;;;5095956;28;20596;-93
2022/03/20 05:35:40;;;;;;;22.25;9.55;;;;;;;;;;5096763;28;20476;-94
2022/03/20 05:38:07;;;;;;;21.53;10.80;;;;;;;;;;5096600;28;20032;-94
2022/03/20 05:40:32;;;;;;;20.73;9.80;;;;;;;;;;5095489;28;20635;-92
2022/03/20 05:42:57;;;;;;;19.23;9.17;;;;;;;;;;5095533;28;20026;-95
2022/03/20 05:45:23;;;;;;;20.53;9.23;;;;;;;;;;5095806;28;20016;-94
2022/03/20 05:47:48;;;;;;;20.30;9.37;;;;;;;;;;5095556;28;20027;-94
2022/03/20 05:50:15;;;;;;;22.33;10.20;;;;;;;;;;5096763;28;20573;-94
2022/03/20 05:52:41;;;;;;;21.70;10.83;;;;;;;;;;5094656;28;20035;-94
2022/03/20 05:55:07;;;;;;;21.93;10.63;;;;;;;;;;5094952;28;20043;-93
2022/03/20 06:00:20;;;;;;;32.67;14.50;;;;;;;;;;5096488;28;20415;-94
2022/03/20 06:02:45;;;;;;;31.80;15.27;;;;;;;;;;5095923;28;20012;-94
2022/03/20 06:05:11;;;;;;;35.47;14.93;;;;;;;;;;5094840;28;20070;-94
2022/03/20 06:07:41;;;;;;;24.90;11.23;;;;;;;;;;5093950;28;20027;-89
2022/03/20 06:10:08;;;;;;;29.10;13.57;;;;;;;;;;5095069;28;20040;-94
2022/03/20 06:12:33;;;;;;;31.60;13.90;;;;;;;;;;5095034;28;20380;-94
2022/03/20 06:14:58;;;;;;;60.67;27.40;;;;;;;;;;5096181;28;20031;-93
2022/03/20 06:17:24;;;;;;;44.67;20.30;;;;;;;;;;5094207;28;20020;-89
2022/03/20 06:19:49;;;;;;;33.93;16.60;;;;;;;;;;5094702;28;20074;-85
2022/03/20 06:22:15;;;;;;;26.27;13.13;;;;;;;;;;5094982;28;20471;-94
2022/03/20 06:24:40;;;;;;;27.07;13.57;;;;;;;;;;5094607;28;20012;-86
2022/03/20 06:27:05;;;;;;;30.57;14.83;;;;;;;;;;5096168;28;20028;-94
2022/03/20 06:29:30;;;;;;;26.77;12.97;;;;;;;;;;5095577;28;20017;-94
2022/03/20 06:31:56;;;;;;;31.47;16.37;;;;;;;;;;5094833;28;20050;-93
2022/03/20 06:34:21;;;;;;;29.83;13.90;;;;;;;;;;5095225;28;20021;-93
2022/03/20 06:36:46;;;;;;;29.47;14.37;;;;;;;;;;5094355;28;20040;-91
2022/03/20 06:39:11;;;;;;;24.90;12.03;;;;;;;;;;5092529;28;20028;-94
2022/03/20 06:41:37;;;;;;;26.57;13.20;;;;;;;;;;5092781;28;20020;-94
2022/03/20 06:44:04;;;;;;;22.87;11.43;;;;;;;;;;5091026;28;20528;-95
2022/03/20 06:46:29;;;;;;;48.30;28.03;;;;;;;;;;5073973;28;20043;-94
2022/03/20 06:48:55;;;;;;;45.80;25.20;;;;;;;;;;5074482;28;20482;-91
2022/03/20 06:51:22;;;;;;;40.37;21.17;;;;;;;;;;5093709;28;20089;-94
2022/03/20 06:53:47;;;;;;;37.00;21.00;;;;;;;;;;5093292;28;20025;-87
2022/03/20 06:56:13;;;;;;;30.53;15.53;;;;;;;;;;5093702;28;20039;-94
2022/03/20 06:58:39;;;;;;;28.33;15.30;;;;;;;;;;5093789;28;20366;-89
2022/03/20 07:01:04;;;;;;;24.93;12.50;;;;;;;;;;5093706;28;20024;-94
2022/03/20 07:03:29;;;;;;;27.70;13.30;;;;;;;;;;5093430;28;20074;-93
2022/03/20 07:05:54;;;;;;;24.80;12.60;;;;;;;;;;5095682;28;20024;-96
2022/03/20 07:08:20;;;;;;;24.60;12.50;;;;;;;;;;5094614;28;20078;-96
2022/03/20 07:10:45;;;;;;;26.37;13.00;;;;;;;;;;5093640;28;20020;-90
2022/03/20 07:16:00;;;;;;;44.97;24.07;;;;;;;;;;5095132;28;20079;-95
2022/03/20 07:18:25;;;;;;;;;;;;;;;;;;5094395;28;20070;-95
2022/03/20 07:20:51;;;;;;;38.00;18.80;;;;;;;;;;5093445;28;19904;-94
2022/03/20 07:23:16;;;;;;;49.47;25.27;;;;;;;;;;5094631;28;20019;-95
2022/03/20 07:31:11;;;;;;;35.13;19.03;;;;;;;;;;5094881;28;20035;-95
2022/03/20 07:33:36;;;;;;;32.77;16.03;;;;;;;;;;5094421;28;20372;-95
2022/03/20 07:36:02;;;;;;;34.23;17.13;;;;;;;;;;5093993;28;20039;-95
2022/03/20 07:38:28;;;;;;;35.25;19.85;;;;;;;;;;5093061;28;20012;-88
2022/03/20 07:40:53;;;;;;;30.10;16.20;;;;;;;;;;5092823;28;20427;-83
2022/03/20 07:43:18;;;;;;;30.23;16.47;;;;;;;;;;5093066;28;20020;-95
2022/03/20 07:45:44;;;;;;;39.63;20.83;;;;;;;;;;5093143;28;20050;-95
2022/03/20 07:48:09;;;;;;;41.57;25.07;;;;;;;;;;5092676;28;20019;-95
2022/03/20 07:50:35;;;;;;;47.63;28.87;;;;;;;;;;5092975;28;20162;-95
2022/03/20 07:53:00;;;;;;;30.97;18.10;;;;;;;;;;5092908;28;20035;-95
2022/03/20 07:55:28;;;;;;;33.30;18.38;;;;;;;;;;5110073;28;20366;-95
2022/03/20 07:57:55;;;;;;;29.50;16.25;;;;;;;;;;5093967;28;20048;-95
2022/03/20 08:00:21;;;;;;;28.87;15.67;;;;;;;;;;5092867;28;20456;-92
2022/03/20 08:02:47;;;;;;;30.23;15.93;;;;;;;;;;5092658;28;20060;-93
2022/03/20 08:05:12;;;;;;;27.50;16.83;;;;;;;;;;5093601;28;20059;-94
2022/03/20 08:07:38;;;;;;;28.88;16.52;;;;;;;;;;5092239;28;20065;-94
2022/03/20 08:10:11;;;;;;;31.23;16.70;;;;;;;;;;5092479;28;20031;-95
2022/03/20 08:12:37;;;;;;;29.40;17.13;;;;;;;;;;5093751;28;20107;-86
2022/03/20 08:15:03;;;;;;;32.38;17.75;;;;;;;;;;5092985;28;20032;-95
2022/03/20 08:17:29;;;;;;;34.33;17.83;;;;;;;;;;5090321;28;20047;-94
2022/03/20 08:19:55;;;;;;;32.00;17.67;;;;;;;;;;5072405;28;20480;-92
2022/03/20 08:22:20;;;;;;;27.47;15.77;;;;;;;;;;5073647;28;20024;-94
2022/03/20 08:24:47;;;;;;;28.60;16.30;;;;;;;;;;5080684;28;20459;-95
2022/03/20 08:27:12;;;;;;;28.52;16.13;;;;;;;;;;5091418;28;20023;-84
2022/03/20 08:29:37;;;;;;;31.08;17.65;;;;;;;;;;5107978;28;20384;-84
2022/03/20 08:32:03;;;;;;;27.83;16.88;;;;;;;;;;5093034;28;20077;-89
2022/03/20 08:34:28;;;;;;;28.92;15.75;;;;;;;;;;5091627;28;20491;-85
2022/03/20 08:36:54;;;;;;;34.20;17.25;;;;;;;;;;5091920;28;20028;-94
2022/03/20 08:39:20;;;;;;;30.05;17.15;;;;;;;;;;5093424;28;20017;-95
2022/03/20 08:41:47;;;;;;;31.05;17.90;;;;;;;;;;5092063;28;20111;-95
2022/03/20 08:44:13;;;;;;;32.92;17.50;;;;;;;;;;5093152;28;20029;-95
2022/03/20 08:46:38;;;;;;;29.63;16.85;;;;;;;;;;5093505;28;20129;-91
2022/03/20 08:49:07;;;;;;;27.50;15.82;;;;;;;;;;5093085;28;20023;-96
2022/03/20 08:51:38;;;;;;;31.23;17.85;;;;;;;;;;5088497;28;20481;-88
2022/03/20 08:54:04;;;;;;;30.92;17.40;;;;;;;;;;5072228;28;20024;-96
2022/03/20 08:56:29;;;;;;;27.67;16.40;;;;;;;;;;5072995;28;20549;-96
2022/03/20 08:58:54;;;;;;;29.20;17.42;;;;;;;;;;5085921;28;20059;-95
2022/03/20 09:01:20;;;;;;;32.42;16.83;;;;;;;;;;5093251;28;20099;-96
2022/03/20 09:03:49;;;;;;;30.67;16.30;;;;;;;;;;5109414;28;20020;-92
2022/03/20 09:06:23;;;;;;;31.83;16.88;;;;;;;;;;5092838;28;20023;-95
2022/03/20 09:08:49;;;;;;;27.48;14.63;;;;;;;;;;5091070;28;20026;-95
2022/03/20 09:11:15;;;;;;;34.42;18.50;;;;;;;;;;5091543;28;20115;-96
2022/03/20 09:13:41;;;;;;;28.60;16.00;;;;;;;;;;5087921;28;20094;-86
2022/03/20 09:18:59;;;;;;;28.17;15.30;;;;;;;;;;5092712;28;20502;-96
2022/03/20 09:21:28;;;;;;;39.60;22.30;;;;;;;;;;5091924;28;20031;-96
2022/03/20 09:23:53;;;;;;;37.63;21.88;;;;;;;;;;5091815;28;20017;-96
2022/03/20 09:26:19;;;;;;;29.60;16.25;;;;;;;;;;5092591;28;20048;-89
2022/03/20 09:28:44;;;;;;;61.08;32.83;;;;;;;;;;5091381;28;20562;-96
2022/03/20 09:31:10;;;;;;;39.55;23.35;;;;;;;;;;5092598;28;20024;-95
2022/03/20 09:33:35;;;;;;;36.47;22.13;;;;;;;;;;5091313;28;20452;-86
2022/03/20 09:36:00;;;;;;;50.55;29.75;;;;;;;;;;5091190;28;20042;-95
2022/03/20 09:38:26;;;;;;;47.83;28.95;;;;;;;;;;5092361;28;20016;-96
2022/03/20 09:40:51;;;;;;;33.40;21.00;;;;;;;;;;5091154;28;20084;-95
2022/03/20 09:43:17;;;;;;;45.50;23.70;;;;;;;;;;5094869;28;20020;-96
2022/03/20 09:45:43;;;;;;;36.92;23.08;;;;;;;;;;5095182;28;20471;-96
2022/03/20 09:48:08;;;;;;;38.42;22.05;;;;;;;;;;5095574;28;20464;-94
2022/03/20 09:50:33;;;;;;;50.28;26.88;;;;;;;;;;5095371;28;20016;-95
2022/03/20 09:52:59;;;;;;;38.45;21.98;;;;;;;;;;5095203;28;20064;-94
2022/03/20 09:55:24;;;;;;;40.78;23.75;;;;;;;;;;5096094;28;20035;-85
2022/03/20 09:57:54;;;;;;;37.42;19.42;;;;;;;;;;5096178;28;20047;-95
2022/03/20 10:00:19;;;;;;;28.70;18.13;;;;;;;;;;5096529;28;20051;-86
2022/03/20 10:02:44;;;;;;;32.35;18.88;;;;;;;;;;5094889;28;20028;-95
2022/03/20 10:05:10;;;;;;;26.15;15.00;;;;;;;;;;5095764;28;20102;-95
2022/03/20 10:07:40;;;;;;;25.27;14.52;;;;;;;;;;5094976;28;20024;-94
2022/03/20 10:10:19;;;;;;;26.80;15.25;;;;;;;;;;5094789;28;20050;-94
2022/03/20 10:12:53;;;;;;;35.45;17.48;;;;;;;;;;5094975;28;20020;-94
2022/03/20 10:15:30;;;;;;;32.10;17.00;;;;;;;;;;5094375;28;20069;-89
2022/03/20 10:18:09;;;;;;;27.48;15.52;;;;;;;;;;5094489;28;20073;-95
2022/03/20 10:20:44;;;;;;;28.27;15.40;;;;;;;;;;5094875;28;20020;-94
2022/03/20 10:23:28;;;;;;;26.63;15.27;;;;;;;;;;5094839;28;20468;-95
2022/03/20 10:25:53;;;;;;;27.73;16.15;;;;;;;;;;5094612;28;20020;-94
2022/03/20 10:28:18;;;;;;;29.15;16.20;;;;;;;;;;5095472;28;20077;-94
2022/03/20 10:30:55;;;;;;;28.25;15.52;;;;;;;;;;5093627;28;20059;-94
2022/03/20 10:33:20;;;;;;;26.70;15.27;;;;;;;;;;5074288;28;20035;-94
2022/03/20 10:36:05;;;;;;;28.30;14.88;;;;;;;;;;5074808;28;20020;-94
2022/03/20 10:38:36;;;;;;;29.42;15.73;;;;;;;;;;5074662;28;20029;-88
2022/03/20 10:41:01;;;;;;;25.88;15.00;;;;;;;;;;5074646;28;20089;-94
2022/03/20 10:43:26;;;;;;;25.33;15.70;;;;;;;;;;5092490;28;20636;-94
2022/03/20 10:46:01;;;;;;;27.50;15.80;;;;;;;;;;5095220;28;20016;-91
2022/03/20 10:48:34;;;;;;;26.35;15.15;;;;;;;;;;5093908;28;20024;-94
2022/03/20 10:50:59;;;;;;;28.35;15.10;;;;;;;;;;5094354;28;20070;-86
2022/03/20 10:53:25;;;;;;;25.45;13.30;;;;;;;;;;5093221;28;20047;-93
2022/03/20 10:55:54;;;;;;;25.77;15.15;;;;;;;;;;5094235;28;20068;-93
2022/03/20 10:58:20;;;;;;;24.80;13.73;;;;;;;;;;5093715;28;20024;-93
2022/03/20 11:00:46;;;;;;;25.88;14.93;;;;;;;;;;5093111;28;20028;-93
2022/03/20 11:03:14;;;;;;;26.40;14.85;;;;;;;;;;5092703;28;20062;-91
2022/03/20 11:05:40;;;;;;;26.73;14.88;;;;;;;;;;5094169;28;20020;-93
2022/03/20 11:08:05;;;;;;;25.50;15.07;;;;;;;;;;5094338;28;20375;-93
2022/03/20 11:10:31;;;;;;;27.90;14.90;;;;;;;;;;5093213;28;20026;-85
2022/03/20 11:12:59;;;;;;;24.27;14.07;;;;;;;;;;5110638;28;20029;-88
2022/03/20 11:15:29;;;;;;;25.98;14.30;;;;;;;;;;5078518;22;20112;-84
2022/03/20 11:18:03;;;;;;;28.15;14.52;;;;;;;;;;5046223;28;20021;-85
2022/03/20 11:20:48;;;;;;;25.50;14.55;;;;;;;;;;5054470;28;20041;-84
2022/03/20 11:23:14;;;;;;;24.92;14.48;;;;;;;;;;5054947;28;20005;-84
2022/03/20 11:26:02;;;;;;;26.80;14.32;;;;;;;;;;5065626;28;20035;-84
2022/03/20 11:28:27;;;;;;;24.83;13.85;;;;;;;;;;5070885;28;20025;-84
2022/03/20 11:31:13;;;;;;;28.05;15.68;;;;;;;;;;5051801;28;20010;-85
2022/03/20 11:33:58;;;;;;;30.13;16.63;;;;;;;;;;5052782;28;20045;-84
2022/03/20 11:36:23;;;;;;;25.33;13.57;;;;;;;;;;5051902;28;20077;-85
2022/03/20 11:39:10;;;;;;;31.95;18.77;;;;;;;;;;5049327;28;20033;-91
2022/03/20 11:41:36;;;;;;;26.35;14.32;;;;;;;;;;5033435;28;20496;-91
2022/03/20 11:44:15;;;;;;;27.27;15.23;;;;;;;;;;5033331;28;20061;-91
2022/03/20 11:46:43;;;;;;;24.30;14.07;;;;;;;;;;5032875;28;20043;-89
2022/03/20 11:49:18;;;;;;;24.63;14.75;;;;;;;;;;5032567;28;20593;-91
2022/03/20 11:52:02;;;;;;;23.42;13.38;;;;;;;;;;5032805;28;20022;-91
2022/03/20 11:54:31;;;;;;;23.88;14.20;;;;;;;;;;5032912;28;20017;-91
2022/03/20 11:56:58;;;;;;;21.88;12.85;;;;;;;;;;5032434;28;20058;-92
2022/03/20 11:59:47;;;;;;;23.17;12.98;;;;;;;;;;5032407;28;20044;-90
2022/03/20 12:02:14;;;;;;;24.50;13.35;;;;;;;;;;5026845;28;20075;-88
2022/03/20 12:04:45;;;;;;;23.30;12.20;;;;;;;;;;5032706;28;20512;-91
2022/03/20 12:07:20;;;;;;;24.65;13.88;;;;;;;;;;5032665;28;20036;-91
2022/03/20 12:09:54;;;;;;;24.10;13.15;;;;;;;;;;5032335;28;20034;-85
2022/03/20 12:12:31;;;;;;;24.23;13.15;;;;;;;;;;5032441;28;20040;-88
2022/03/20 12:14:57;;;;;;;26.38;14.35;;;;;;;;;;5032167;28;20025;-86
2022/03/20 12:17:23;;;;;;;22.92;13.95;;;;;;;;;;5036140;28;20093;-89
2022/03/20 12:19:49;;;;;;;26.30;13.70;;;;;;;;;;5053337;28;20026;-96
2022/03/20 12:22:21;;;;;;;22.10;13.43;;;;;;;;;;5055996;28;20085;-84
2022/03/20 12:24:58;;;;;;;25.55;13.32;;;;;;;;;;5037186;28;20025;-85
2022/03/20 12:27:23;;;;;;;24.25;14.13;;;;;;;;;;5033166;28;20406;-90
2022/03/20 12:29:51;;;;;;;23.00;13.90;;;;;;;;;;5033360;28;20028;-90
2022/03/20 12:32:17;;;;;;;24.00;13.50;;;;;;;;;;5032337;28;20448;-91
2022/03/20 12:34:43;;;;;;;23.77;13.48;;;;;;;;;;5032720;28;20055;-91
2022/03/20 12:37:27;;;;;;;26.65;14.07;;;;;;;;;;5031653;28;20056;-86
2022/03/20 12:39:55;;;;;;;22.60;13.20;;;;;;;;;;5031975;28;20054;-90
2022/03/20 12:42:23;;;;;;;22.75;12.25;;;;;;;;;;5033112;28;20030;-91
2022/03/20 12:44:49;;;;;;;23.13;12.02;;;;;;;;;;5032009;28;20022;-90
2022/03/20 12:47:17;;;;;;;27.35;14.40;;;;;;;;;;5031897;28;20057;-91
2022/03/20 12:49:45;;;;;;;25.23;14.63;;;;;;;;;;5031574;28;20017;-90
2022/03/20 12:52:10;;;;;;;26.73;14.18;;;;;;;;;;5033123;28;20025;-90
2022/03/20 12:54:35;;;;;;;27.27;15.02;;;;;;;;;;5031633;28;20540;-91
2022/03/20 12:57:04;;;;;;;25.65;14.82;;;;;;;;;;5031840;28;20030;-90
2022/03/20 12:59:29;;;;;;;26.85;15.40;;;;;;;;;;5032953;28;20040;-90
2022/03/20 13:01:55;;;;;;;26.38;15.65;;;;;;;;;;5032175;28;20469;-91
2022/03/20 13:04:21;;;;;;;23.52;14.32;;;;;;;;;;5032351;28;20021;-89
2022/03/20 13:06:46;;;;;;;28.25;15.68;;;;;;;;;;5033402;28;20025;-90
2022/03/20 13:09:12;;;;;;;26.77;14.80;;;;;;;;;;5032330;28;20536;-90
2022/03/20 13:11:53;;;;;;;26.55;14.68;;;;;;;;;;5033247;28;20117;-90
2022/03/20 13:14:19;;;;;;;26.45;14.48;;;;;;;;;;5031801;28;20037;-90
2022/03/20 13:16:49;;;;;;;26.42;15.40;;;;;;;;;;5034595;28;20056;-90
2022/03/20 13:19:35;;;;;;;25.57;14.60;;;;;;;;;;5036406;28;20416;-90
2022/03/20 13:22:01;;;;;;;23.63;13.32;;;;;;;;;;5035228;28;20029;-88
2022/03/20 13:24:33;;;;;;;24.65;14.40;;;;;;;;;;5035954;28;20017;-90
2022/03/20 13:27:03;;;;;;;26.35;15.23;;;;;;;;;;5036800;28;20025;-88
2022/03/20 13:29:29;;;;;;;23.55;14.18;;;;;;;;;;5035473;28;20022;-90
2022/03/20 13:31:57;;;;;;;25.70;15.05;;;;;;;;;;5032228;28;20113;-88
2022/03/20 13:34:23;;;;;;;22.05;12.98;;;;;;;;;;5035462;28;20018;-90
2022/03/20 13:36:48;;;;;;;24.77;13.90;;;;;;;;;;5052152;28;20055;-90
2022/03/20 13:39:13;;;;;;;23.38;12.93;;;;;;;;;;5052314;28;20047;-90
2022/03/20 13:41:40;;;;;;;23.08;13.35;;;;;;;;;;5036926;28;20025;-87
2022/03/20 13:44:05;;;;;;;23.38;12.98;;;;;;;;;;5036625;28;20018;-90
2022/03/20 13:46:31;;;;;;;23.48;12.57;;;;;;;;;;5036287;28;20018;-85
2022/03/20 13:48:58;;;;;;;23.10;11.85;;;;;;;;;;5052072;28;20013;-93
2022/03/20 13:51:27;;;;;;;21.77;11.63;;;;;;;;;;5036844;28;20443;-95
2022/03/20 13:54:11;;;;;;;24.17;13.55;;;;;;;;;;5035982;28;20565;-94
2022/03/20 13:56:36;;;;;;;22.48;13.20;;;;;;;;;;5034947;28;20390;-95
2022/03/20 13:59:10;;;;;;;21.80;13.20;;;;;;;;;;5051145;28;20025;-94
2022/03/20 14:01:54;;;;;;;25.83;13.13;;;;;;;;;;5050445;28;20156;-95
2022/03/20 14:04:20;;;;;;;26.13;14.25;;;;;;;;;;5051260;28;20031;-89
2022/03/20 14:06:46;;;;;;;22.55;11.23;;;;;;;;;;5050991;28;20164;-93
2022/03/20 14:09:12;;;;;;;20.92;11.13;;;;;;;;;;5035294;28;20021;-84
2022/03/20 14:11:38;;;;;;;24.33;12.20;;;;;;;;;;5051220;28;20021;-94
2022/03/20 14:14:05;;;;;;;21.63;11.95;;;;;;;;;;5050999;28;20013;-85
2022/03/20 14:16:32;;;;;;;23.35;10.95;;;;;;;;;;5051141;28;20428;-85
2022/03/20 14:19:00;;;;;;;21.45;11.20;;;;;;;;;;5035680;28;20017;-94
2022/03/20 14:21:29;;;;;;;22.23;12.07;;;;;;;;;;5050752;28;20091;-94
2022/03/20 14:23:58;;;;;;;22.35;12.13;;;;;;;;;;5051034;28;20539;-95
2022/03/20 14:26:25;;;;;;;20.70;11.40;;;;;;;;;;5034265;28;20064;-94
2022/03/20 14:29:00;;;;;;;20.27;10.85;;;;;;;;;;5049651;28;20100;-94
2022/03/20 14:39:48;;;;;;;20.55;11.25;;;;;;;;;;5035177;28;20437;-94
2022/03/20 14:42:24;;;;;;;19.17;10.48;;;;;;;;;;5050628;28;20022;-93
2022/03/20 14:44:49;;;;;;;20.52;10.20;;;;;;;;;;5035091;28;20024;-94
2022/03/20 14:47:17;;;;;;;19.17;10.77;;;;;;;;;;5050405;28;20013;-93
2022/03/20 14:49:42;;;;;;;18.63;10.07;;;;;;;;;;5034085;28;20116;-94
2022/03/20 14:52:08;;;;;;;18.17;9.32;;;;;;;;;;5035053;28;20053;-93
2022/03/20 14:54:34;;;;;;;17.98;9.40;;;;;;;;;;5050151;28;20540;-94
2022/03/20 14:56:59;;;;;;;18.83;9.27;;;;;;;;;;5050209;28;20120;-92
2022/03/20 14:59:24;;;;;;;15.73;8.63;;;;;;;;;;5050178;28;20025;-93
2022/03/20 15:01:51;;;;;;;17.52;8.57;;;;;;;;;;5050386;28;20029;-94
2022/03/20 15:04:17;;;;;;;16.90;8.70;;;;;;;;;;5050154;28;20528;-85
2022/03/20 15:06:43;;;;;;;17.88;9.40;;;;;;;;;;5050004;28;20050;-93
2022/03/20 15:11:53;;;;;;;22.48;11.13;;;;;;;;;;5034871;28;20043;-92